Terminal Aerodrome Forecast
Issued by NWS

Home | Current Version | Previous Version | Text Only | Print | Product List | Glossary Off
Versions: 1 2 3 4 5 6 7 8 9 10 11 12 13 14 15 16 17 18 19 20 21 22 23 24 25 26 27 28 29 30 31 32 33 34 35 36 37 38

000
FTUS43 KGRB 010500
TAFRHI
TAF
KRHI 010539Z 0106/0206 15007KT P6SM OVC004
     FM010800 15004KT P6SM SCT003 OVC004
      TEMPO 0109/0113 5SM BR BKN003
     FM012100 15006KT P6SM VCSH BKN020
     FM012300 12004KT 4SM -RA BR SCT004 OVC010
      TEMPO 0202/0206 2SM -RA BR BKN004=

USA.gov is the U.S. government's official web portal to all federal, state and local government web resources and services.